Time;durP1;ratioP1;P1;durP2;ratioP2;P2;SDS_P1;SDS_P2;PMS_P1;PMS_P2;Temp;Humidity;BMP_temperature;BMP_pressure;BME280_temperature;BME280_humidity;BME280_pressure;Samples;Min_cycle;Max_cycle;Signal;HPM_P1;HPM_P2
2024/01/07 00:02:48;;;;;;;12.15;5.90;;;;;;;13.45;54.02;99559.45;1735126;82;21327;-88
2024/01/07 00:05:54;;;;;;;18.20;5.87;;;;;;;13.38;54.19;99570.98;1686795;85;21584;-89
2024/01/07 00:09:01;;;;;;;18.52;6.37;;;;;;;13.58;53.75;99575.08;1739610;82;21319;-88
2024/01/07 00:12:07;;;;;;;14.38;6.20;;;;;;;13.69;53.48;99573.57;1738067;82;21343;-88
2024/01/07 00:15:13;;;;;;;13.30;6.08;;;;;;;13.28;54.78;99576.07;1687881;85;21989;-89
2024/01/07 00:18:20;;;;;;;13.32;5.12;;;;;;;13.65;53.72;99571.80;1738011;82;21870;-88
2024/01/07 00:21:26;;;;;;;15.70;6.10;;;;;;;13.72;53.31;99575.37;1738003;82;21879;-89
2024/01/07 00:24:31;;;;;;;18.55;6.25;;;;;;;13.35;54.05;99574.14;1760625;80;21355;-88
2024/01/07 00:27:38;;;;;;;11.60;5.10;;;;;;;13.30;54.31;99570.66;1764963;81;21331;-88
2024/01/07 00:30:45;;;;;;;10.05;5.05;;;;;;;13.64;53.47;99576.13;1736038;81;21300;-88
2024/01/07 00:33:51;;;;;;;13.70;5.70;;;;;;;13.47;53.66;99576.58;1734686;82;21355;-89
2024/01/07 00:36:57;;;;;;;15.38;5.85;;;;;;;13.55;53.58;99577.74;1734422;82;22614;-89
2024/01/07 00:40:04;;;;;;;11.83;5.97;;;;;;;13.87;52.84;99579.24;1733532;82;21345;-88
2024/01/07 00:43:11;;;;;;;15.05;5.25;;;;;;;13.61;53.16;99583.44;1732840;82;21359;-88
2024/01/07 00:46:18;;;;;;;13.58;5.97;;;;;;;13.68;52.96;99579.60;1800769;79;21949;-88
2024/01/07 00:49:25;;;;;;;12.28;4.92;;;;;;;13.76;52.80;99575.26;1733861;82;21312;-88
2024/01/07 00:52:32;;;;;;;13.22;5.72;;;;;;;13.59;53.16;99575.92;1802796;79;21827;-88
2024/01/07 00:55:38;;;;;;;13.48;5.17;;;;;;;14.08;52.20;99575.92;1734108;82;21299;-88
2024/01/07 00:58:45;;;;;;;12.53;5.00;;;;;;;13.90;52.58;99571.95;1801225;79;21874;-88
2024/01/07 01:01:50;;;;;;;17.23;5.87;;;;;;;13.75;52.98;99575.48;1733399;82;21867;-89
2024/01/07 01:04:57;;;;;;;12.47;5.62;;;;;;;13.87;52.69;99575.65;1801228;79;21349;-88
2024/01/07 01:08:03;;;;;;;10.80;5.37;;;;;;;13.53;53.38;99572.97;1802632;79;21325;-88
2024/01/07 01:11:02;;;;;;;15.80;7.55;;;;;;;13.95;52.69;99568.02;1802748;79;21321;-88
2024/01/07 01:13:55;;;;;;;23.52;8.00;;;;;;;13.68;53.17;99576.02;1802286;79;21321;-88
2024/01/07 01:16:42;;;;;;;14.10;6.72;;;;;;;13.93;52.51;99581.15;1801090;79;21303;-89
2024/01/07 01:19:35;;;;;;;11.22;6.28;;;;;;;13.85;52.61;99577.78;1800935;79;21851;-89
2024/01/07 01:22:23;;;;;;;14.07;5.90;;;;;;;14.06;52.01;99578.87;1802633;79;21272;-88
2024/01/07 01:25:22;;;;;;;16.00;6.30;;;;;;;14.08;51.73;99581.42;1800252;79;21264;-89
2024/01/07 01:28:29;;;;;;;12.23;5.08;;;;;;;13.96;52.09;99582.07;1802715;79;21301;-89
2024/01/07 01:31:36;;;;;;;10.95;5.58;;;;;;;13.72;52.67;99579.49;1801055;79;21325;-88
2024/01/07 01:34:41;;;;;;;16.80;7.30;;;;;;;13.58;52.76;99576.98;1802024;79;21293;-88
2024/01/07 01:37:48;;;;;;;30.37;10.90;;;;;;;13.88;52.05;99574.08;1802496;79;21293;-88
2024/01/07 01:41:01;;;;;;;63.50;17.17;;;;;;;13.33;53.14;99572.16;1802697;79;21309;-88
2024/01/07 01:44:08;;;;;;;43.13;14.18;;;;;;;13.72;52.54;99573.16;1818655;78;21323;-89
2024/01/07 01:47:15;;;;;;;30.62;9.43;;;;;;;13.84;52.12;99581.06;1802465;79;21339;-88
2024/01/07 01:50:21;;;;;;;35.85;12.00;;;;;;;13.82;52.04;99583.17;1802178;79;21308;-88
2024/01/07 01:53:27;;;;;;;21.23;8.88;;;;;;;13.47;52.88;99575.73;1802303;79;21323;-88
2024/01/07 01:56:35;;;;;;;11.50;5.95;;;;;;;13.67;52.82;99573.80;1802268;79;21862;-87
2024/01/07 01:59:41;;;;;;;10.18;5.58;;;;;;;13.59;53.06;99569.89;1802319;79;21303;-88
2024/01/07 02:02:48;;;;;;;13.62;5.62;;;;;;;13.45;53.18;99569.06;1802015;79;21918;-88
2024/01/07 02:05:53;;;;;;;16.15;5.33;;;;;;;13.58;52.97;99568.73;1801007;79;21370;-88
2024/01/07 02:08:58;;;;;;;14.30;5.95;;;;;;;13.70;52.87;99568.41;1717172;82;21324;-88
2024/01/07 02:12:11;;;;;;;16.62;5.60;;;;;;;14.10;51.97;99566.91;1801901;79;21307;-88
2024/01/07 02:15:16;;;;;;;10.38;4.22;;;;;;;13.99;51.93;99563.78;1801241;79;21307;-88
2024/01/07 02:18:22;;;;;;;10.93;5.00;;;;;;;13.99;51.90;99559.66;1801175;79;21363;-88
2024/01/07 02:21:29;;;;;;;7.45;4.47;;;;;;;13.97;51.72;99560.92;1802201;79;21296;-89
2024/01/07 02:24:35;;;;;;;15.13;5.08;;;;;;;13.84;51.86;99564.58;1800994;79;21909;-89
2024/01/07 02:27:41;;;;;;;8.13;4.62;;;;;;;13.80;51.87;99579.80;1800624;79;21351;-89
2024/01/07 02:30:48;;;;;;;16.57;5.70;;;;;;;13.83;51.82;99566.98;1802550;79;21311;-88
2024/01/07 02:33:54;;;;;;;13.75;5.60;;;;;;;13.46;52.59;99579.02;1780637;79;21323;-89
2024/01/07 02:37:00;;;;;;;16.97;5.37;;;;;;;13.58;52.83;99573.70;1801095;79;21275;-89
2024/01/07 02:40:08;;;;;;;14.35;5.50;;;;;;;13.54;52.97;99578.77;1802819;79;21862;-88
2024/01/07 02:43:14;;;;;;;15.83;6.08;;;;;;;13.85;52.02;99571.75;1801643;79;21272;-88
2024/01/07 02:46:21;;;;;;;15.08;6.37;;;;;;;13.49;52.46;99558.50;1801686;79;21336;-89
2024/01/07 02:49:20;;;;;;;14.30;6.33;;;;;;;13.48;52.48;99558.19;1801889;79;21308;-88
2024/01/07 02:52:27;;;;;;;15.78;6.90;;;;;;;13.66;52.38;99567.99;1802472;78;21625;-87
2024/01/07 02:55:33;;;;;;;18.15;8.15;;;;;;;13.67;52.05;99568.83;1807295;79;21311;-88
2024/01/07 02:58:39;;;;;;;16.77;8.05;;;;;;;13.49;52.34;99579.11;1807408;79;21335;-88
2024/01/07 03:01:45;;;;;;;15.40;7.53;;;;;;;13.20;53.21;99568.00;1806148;79;21891;-87
2024/01/07 03:04:51;;;;;;;14.55;6.67;;;;;;;13.11;53.71;99566.52;1803947;79;21281;-88
2024/01/07 03:07:58;;;;;;;14.60;5.65;;;;;;;13.19;53.51;99570.44;1801314;79;21316;-88
2024/01/07 03:11:03;;;;;;;11.40;6.15;;;;;;;13.23;53.45;99571.73;1801221;79;21854;-89
2024/01/07 03:14:09;;;;;;;16.55;8.30;;;;;;;13.24;53.59;99572.05;1799746;79;21850;-88
2024/01/07 03:17:17;;;;;;;14.85;7.50;;;;;;;13.16;53.66;99572.22;1800071;79;21283;-88
2024/01/07 03:20:23;;;;;;;10.88;5.62;;;;;;;13.04;54.34;99569.27;1799924;79;21335;-87
2024/01/07 03:23:29;;;;;;;12.68;6.22;;;;;;;13.20;53.98;99565.25;1801141;78;21827;-87
2024/01/07 03:26:38;;;;;;;11.38;5.97;;;;;;;13.24;53.76;99557.78;1801009;79;21352;-88
2024/01/07 03:29:45;;;;;;;14.28;6.37;;;;;;;13.40;53.25;99565.27;1814675;78;21878;-87
2024/01/07 03:32:51;;;;;;;19.10;7.25;;;;;;;13.48;53.01;99570.02;1819303;78;21287;-88
2024/01/07 03:35:57;;;;;;;14.75;5.95;;;;;;;13.62;52.50;99581.00;1827457;78;21335;-89
2024/01/07 03:39:04;;;;;;;16.62;5.67;;;;;;;13.36;52.92;99579.11;1744699;82;21303;-88
2024/01/07 03:42:11;;;;;;;12.90;5.78;;;;;;;13.44;53.24;99583.86;1765333;81;21332;-89
2024/01/07 03:45:17;;;;;;;17.10;7.15;;;;;;;13.86;52.26;99588.55;1765352;81;21304;-89
2024/01/07 03:48:23;;;;;;;20.92;7.70;;;;;;;13.97;51.63;99576.04;1765272;81;21285;-88
2024/01/07 03:51:29;;;;;;;20.60;8.73;;;;;;;13.72;52.26;99578.65;1763541;81;21315;-88
2024/01/07 03:54:36;;;;;;;14.60;6.80;;;;;;;13.77;52.10;99592.59;1765342;81;21302;-89
2024/01/07 03:57:43;;;;;;;20.95;7.95;;;;;;;13.98;51.71;99591.50;1764125;81;21335;-88
2024/01/07 04:00:49;;;;;;;17.32;7.60;;;;;;;14.12;51.50;99596.44;1765070;81;21284;-88
2024/01/07 04:03:56;;;;;;;18.37;7.22;;;;;;;13.73;52.33;99618.27;1765165;81;22203;-88
2024/01/07 04:07:02;;;;;;;19.20;7.37;;;;;;;13.62;52.86;99622.22;1764619;81;21918;-89
2024/01/07 04:10:08;;;;;;;20.97;8.10;;;;;;;13.53;53.05;99625.17;1765239;81;21328;-88
2024/01/07 04:13:14;;;;;;;23.80;8.35;;;;;;;13.53;53.05;99621.05;1763609;81;21320;-88
2024/01/07 04:16:27;;;;;;;21.07;8.30;;;;;;;13.28;53.72;99620.01;1765272;81;21304;-88
2024/01/07 04:19:33;;;;;;;22.27;9.63;;;;;;;13.64;52.94;99622.30;1765321;81;21639;-88
2024/01/07 04:22:40;;;;;;;17.67;7.28;;;;;;;13.64;52.67;99630.55;1765348;81;21292;-88
2024/01/07 04:25:46;;;;;;;25.27;9.35;;;;;;;13.98;52.02;99634.95;1765236;81;21304;-88
2024/01/07 04:28:52;;;;;;;20.75;11.30;;;;;;;13.53;52.63;99633.41;1749817;81;21308;-89
2024/01/07 04:31:52;;;;;;;24.60;10.13;;;;;;;13.65;52.53;99632.80;1751303;82;21869;-89
2024/01/07 04:34:59;;;;;;;24.00;9.70;;;;;;;13.64;52.38;99633.30;1752327;82;21287;-88
2024/01/07 04:38:05;;;;;;;27.58;11.45;;;;;;;13.23;53.33;99639.02;1750325;82;21331;-88
2024/01/07 04:41:11;;;;;;;26.57;10.45;;;;;;;12.94;53.84;99645.17;1749991;82;21339;-89
2024/01/07 04:44:17;;;;;;;22.95;10.63;;;;;;;12.81;55.03;99646.51;1751451;82;21304;-88
2024/01/07 04:47:38;;;;;;;28.35;11.10;;;;;;;12.92;54.64;99654.12;1750835;81;21321;-88
2024/01/07 04:50:44;;;;;;;27.35;12.65;;;;;;;12.60;55.64;99661.73;1765398;81;21319;-88
2024/01/07 04:53:50;;;;;;;24.90;11.95;;;;;;;12.53;56.36;99662.55;1743459;81;21288;-88
2024/01/07 04:56:55;;;;;;;31.85;12.53;;;;;;;12.43;56.54;99653.87;1773611;79;21855;-88
2024/01/07 05:00:03;;;;;;;27.07;12.30;;;;;;;12.13;57.42;99662.03;1773056;81;22304;-88
2024/01/07 05:03:10;;;;;;;28.90;13.85;;;;;;;12.42;56.85;99660.41;1759117;80;21274;-89
2024/01/07 05:06:19;;;;;;;35.95;18.60;;;;;;;12.41;57.02;99654.58;1750933;82;21916;-89
2024/01/07 05:09:26;;;;;;;36.17;17.82;;;;;;;12.31;57.29;99662.34;1752026;80;21295;-88
2024/01/07 05:12:31;;;;;;;36.33;18.55;;;;;;;12.63;56.23;99670.93;1749893;82;21327;-88
2024/01/07 05:15:37;;;;;;;41.63;19.92;;;;;;;12.39;57.09;99667.66;1751277;82;22626;-88
2024/01/07 05:18:48;;;;;;;35.60;18.02;;;;;;;12.06;58.33;99677.60;1763283;80;21295;-87
2024/01/07 05:21:45;;;;;;;46.90;18.37;;;;;;;11.73;58.93;99672.18;1740380;82;21291;-88
2024/01/07 05:24:41;;;;;;;35.63;18.70;;;;;;;12.21;57.66;99683.80;1774228;81;21299;-88
2024/01/07 05:27:47;;;;;;;32.48;18.90;;;;;;;11.82;58.86;99674.78;1737877;82;21902;-88
2024/01/07 05:30:53;;;;;;;33.67;19.35;;;;;;;11.60;59.05;99694.52;1767278;81;21652;-87
2024/01/07 05:33:59;;;;;;;31.95;18.30;;;;;;;11.71;58.60;99697.54;1741277;82;21965;-88
2024/01/07 05:37:05;;;;;;;25.72;16.80;;;;;;;11.52;58.67;99692.75;1754708;81;21339;-88
2024/01/07 05:40:13;;;;;;;27.05;15.93;;;;;;;11.52;58.26;99694.96;1741831;82;21312;-89
2024/01/07 05:43:20;;;;;;;25.00;14.95;;;;;;;11.60;57.89;99680.29;1751554;81;21299;-89
2024/01/07 05:46:27;;;;;;;23.90;13.55;;;;;;;11.29;58.70;99679.80;1740906;82;21316;-88
2024/01/07 05:49:26;;;;;;;25.02;15.40;;;;;;;11.19;58.52;99677.38;1743291;82;21617;-89
2024/01/07 05:52:33;;;;;;;24.52;13.70;;;;;;;11.23;57.97;99680.06;1748742;82;21292;-89
2024/01/07 05:55:39;;;;;;;26.90;15.05;;;;;;;10.98;58.18;99664.55;1741051;82;21316;-88
2024/01/07 05:58:46;;;;;;;21.10;14.23;;;;;;;10.54;59.45;99689.28;1750648;82;21307;-88
2024/01/07 06:01:52;;;;;;;22.45;13.13;;;;;;;10.79;58.75;99691.18;1736038;82;21284;-88
2024/01/07 06:04:59;;;;;;;30.17;14.38;;;;;;;10.78;58.35;99688.13;1759129;81;21341;-89
2024/01/07 06:08:06;;;;;;;29.75;16.35;;;;;;;10.67;58.41;99694.39;1746709;82;21385;-87
2024/01/07 06:11:18;;;;;;;28.85;13.28;;;;;;;9.94;60.49;99701.58;1749151;81;22543;-89
2024/01/07 06:14:19;;;;;;;23.85;14.43;;;;;;;9.84;61.00;99698.28;1743937;82;21301;-89
2024/01/07 06:17:25;;;;;;;28.17;15.15;;;;;;;9.79;61.21;99698.00;1739734;82;21316;-89
2024/01/07 06:20:32;;;;;;;31.55;15.70;;;;;;;9.81;60.58;99703.27;1741248;82;21284;-88
2024/01/07 06:23:40;;;;;;;24.87;13.38;;;;;;;9.66;61.24;99707.34;1707959;84;21967;-88
2024/01/07 06:26:46;;;;;;;24.98;13.18;;;;;;;9.54;61.74;99715.62;1711677;82;21291;-89
2024/01/07 06:29:52;;;;;;;18.92;11.63;;;;;;;9.37;62.14;99725.84;1741718;82;21890;-89
2024/01/07 06:32:58;;;;;;;20.75;11.95;;;;;;;9.29;62.06;99709.53;1750840;81;21367;-88
2024/01/07 06:36:04;;;;;;;22.20;13.90;;;;;;;9.53;61.45;99726.22;1749034;82;21323;-87
2024/01/07 06:39:09;;;;;;;24.02;12.98;;;;;;;9.18;62.09;99729.91;1749068;82;21354;-88
2024/01/07 06:42:15;;;;;;;22.13;13.43;;;;;;;9.05;62.05;99722.84;1777381;80;21918;-88
2024/01/07 06:45:24;;;;;;;22.15;12.55;;;;;;;9.15;61.93;99732.99;1802004;79;21299;-89
2024/01/07 06:48:30;;;;;;;20.43;11.83;;;;;;;9.09;62.13;99737.82;1771495;81;21652;-88
2024/01/07 06:51:38;;;;;;;22.15;12.75;;;;;;;9.20;61.63;99742.84;1770899;81;21299;-89
2024/01/07 06:54:36;;;;;;;;;;;;;;;8.65;62.71;99735.14;1762494;81;21891;-89
2024/01/07 06:57:42;;;;;;;19.30;11.03;;;;;;;8.57;62.48;99731.63;1754866;81;20267;-88
2024/01/07 07:00:48;;;;;;;17.87;10.82;;;;;;;8.61;62.50;99745.22;1750505;82;21302;-88
2024/01/07 07:03:54;;;;;;;20.97;11.85;;;;;;;8.88;61.60;99758.89;1750135;80;21328;-88
2024/01/07 07:07:00;;;;;;;24.32;12.45;;;;;;;8.52;62.08;99737.62;1748897;82;21289;-88
2024/01/07 07:10:07;;;;;;;18.85;11.88;;;;;;;8.70;61.24;99722.34;1749282;82;22262;-88
2024/01/07 07:13:12;;;;;;;22.07;13.32;;;;;;;8.48;61.43;99718.55;1750258;82;21868;-89
2024/01/07 07:16:18;;;;;;;25.52;13.10;;;;;;;8.82;60.81;99713.26;1750199;82;21319;-88
2024/01/07 07:19:23;;;;;;;21.90;12.07;;;;;;;9.04;59.52;99701.53;1751222;80;21292;-87
2024/01/07 07:22:30;;;;;;;21.17;10.93;;;;;;;9.00;59.26;99727.98;1771384;81;21256;-88
2024/01/07 07:25:35;;;;;;;15.80;9.78;;;;;;;8.90;59.28;99724.13;1762130;81;21300;-89
2024/01/07 07:28:42;;;;;;;19.98;13.75;;;;;;;8.79;59.17;99719.91;1764915;80;21892;-88
2024/01/07 07:31:47;;;;;;;16.48;9.43;;;;;;;8.76;58.80;99720.28;1764011;81;21299;-89
2024/01/07 07:34:55;;;;;;;20.05;11.40;;;;;;;8.99;58.27;99727.63;1708210;84;21307;-89
2024/01/07 07:38:02;;;;;;;18.37;10.50;;;;;;;8.49;59.08;99735.23;1706582;84;21319;-89
2024/01/07 07:41:08;;;;;;;19.60;11.57;;;;;;;8.77;58.50;99720.61;1705773;83;21315;-89
2024/01/07 07:44:14;;;;;;;19.60;11.88;;;;;;;8.77;58.49;99742.95;1731223;83;22013;-89
2024/01/07 07:47:20;;;;;;;24.55;12.85;;;;;;;8.76;58.59;99735.28;1732112;83;21874;-89
2024/01/07 07:50:20;;;;;;;21.15;12.55;;;;;;;8.70;58.63;99744.16;1739465;82;21320;-89
2024/01/07 07:53:25;;;;;;;21.23;13.20;;;;;;;8.56;58.41;99741.69;1738515;82;21299;-88
2024/01/07 07:56:31;;;;;;;19.40;12.37;;;;;;;8.59;58.40;99742.68;1719073;81;21912;-88
2024/01/07 07:59:38;;;;;;;21.15;11.70;;;;;;;8.66;57.84;99753.23;1716967;83;21335;-89
2024/01/07 08:02:44;;;;;;;18.27;11.95;;;;;;;8.81;56.83;99757.93;1705319;83;21335;-88
2024/01/07 08:05:49;;;;;;;21.45;11.83;;;;;;;8.47;57.52;99774.58;1738349;82;21313;-89
2024/01/07 08:08:56;;;;;;;20.70;12.45;;;;;;;8.58;57.10;99773.70;1717833;83;22447;-88
2024/01/07 08:12:01;;;;;;;19.92;12.00;;;;;;;8.68;56.90;99766.67;1715493;82;21379;-89
2024/01/07 08:15:06;;;;;;;23.30;12.90;;;;;;;8.57;57.12;99750.72;1725198;82;21324;-89
2024/01/07 08:18:13;;;;;;;25.70;13.50;;;;;;;8.77;56.95;99747.88;1708691;82;21289;-88
2024/01/07 08:21:20;;;;;;;22.48;12.78;;;;;;;8.75;56.53;99753.16;1731517;83;21651;-89
2024/01/07 08:24:27;;;;;;;20.45;12.45;;;;;;;8.52;56.31;99747.16;1732201;83;21933;-88
2024/01/07 08:27:34;;;;;;;20.23;11.65;;;;;;;8.32;56.99;99765.73;1703065;84;21363;-88
2024/01/07 08:30:41;;;;;;;25.43;12.85;;;;;;;8.48;56.80;99758.59;1703004;84;21929;-89
2024/01/07 08:33:47;;;;;;;24.35;13.22;;;;;;;8.68;55.82;99748.95;1717414;80;21352;-88
2024/01/07 08:36:53;;;;;;;22.77;13.70;;;;;;;8.74;55.57;99733.75;1755047;81;21321;-88
2024/01/07 08:40:00;;;;;;;24.75;13.50;;;;;;;8.74;55.61;99738.69;1756638;81;21344;-88
2024/01/07 08:43:07;;;;;;;23.18;14.73;;;;;;;8.63;56.07;99744.03;1828578;78;21319;-89
2024/01/07 08:46:13;;;;;;;26.00;14.95;;;;;;;8.59;55.57;99743.20;1828454;78;21292;-88
2024/01/07 08:49:18;;;;;;;25.35;13.88;;;;;;;9.05;54.57;99743.30;1761668;81;21662;-88
2024/01/07 08:52:24;;;;;;;24.95;14.33;;;;;;;8.95;53.72;99738.92;1802493;79;21293;-88
2024/01/07 08:55:31;;;;;;;25.45;14.73;;;;;;;8.81;53.99;99745.66;1806292;78;21319;-89
2024/01/07 08:58:37;;;;;;;22.25;14.60;;;;;;;8.52;54.77;99743.06;1802465;79;21906;-89
2024/01/07 09:01:43;;;;;;;26.02;15.38;;;;;;;8.45;55.21;99740.18;1801632;79;21339;-88
2024/01/07 09:04:49;;;;;;;26.57;15.55;;;;;;;8.51;54.92;99745.95;1801180;79;21343;-89
2024/01/07 09:07:55;;;;;;;23.47;13.85;;;;;;;8.63;54.60;99735.00;1802443;79;21307;-89
2024/01/07 09:11:02;;;;;;;27.98;15.95;;;;;;;8.75;53.90;99729.50;1813540;78;21295;-88
2024/01/07 09:14:08;;;;;;;28.85;17.42;;;;;;;8.82;53.81;99712.74;1819106;79;21308;-89
2024/01/07 09:17:17;;;;;;;29.75;17.15;;;;;;;8.72;53.97;99716.73;1749044;81;21980;-89
2024/01/07 09:20:23;;;;;;;31.62;16.95;;;;;;;8.97;53.25;99725.09;1822678;78;21284;-89
2024/01/07 09:23:29;;;;;;;22.48;14.70;;;;;;;8.75;53.82;99726.78;1835131;78;21289;-89
2024/01/07 09:26:35;;;;;;;29.18;16.05;;;;;;;8.91;53.25;99742.19;1793969;79;21300;-88
2024/01/07 09:29:41;;;;;;;25.48;16.37;;;;;;;8.95;53.11;99729.89;1761573;81;21634;-88
2024/01/07 09:32:50;;;;;;;27.87;16.55;;;;;;;8.75;52.86;99734.95;1807529;78;21295;-88
2024/01/07 09:35:55;;;;;;;27.00;16.27;;;;;;;8.91;53.24;99732.13;1836362;78;21331;-88
2024/01/07 09:39:04;;;;;;;29.87;15.60;;;;;;;8.93;53.21;99724.59;1827099;78;22550;-87
2024/01/07 09:42:12;;;;;;;26.65;15.18;;;;;;;9.14;52.71;99725.84;1821452;78;21910;-87
2024/01/07 09:45:20;;;;;;;34.63;17.15;;;;;;;8.74;53.41;99723.69;1809546;79;21296;-88
2024/01/07 09:48:25;;;;;;;27.13;15.85;;;;;;;8.64;53.81;99718.98;1809972;78;21328;-90
2024/01/07 09:51:32;;;;;;;27.37;16.27;;;;;;;9.02;52.74;99713.64;1810463;78;21352;-89
2024/01/07 09:54:38;;;;;;;30.57;15.93;;;;;;;9.04;52.79;99717.90;1810984;79;21300;-88
2024/01/07 09:57:45;;;;;;;29.85;16.75;;;;;;;8.99;52.44;99714.87;1833587;78;21288;-89
2024/01/07 10:00:51;;;;;;;26.57;16.42;;;;;;;9.21;52.14;99721.34;1844160;78;21283;-88
2024/01/07 10:03:58;;;;;;;29.80;16.02;;;;;;;9.00;52.14;99717.92;1822686;78;21287;-88
2024/01/07 10:07:04;;;;;;;27.02;15.60;;;;;;;8.71;52.90;99722.70;1810780;78;21316;-88
2024/01/07 10:10:24;;;;;;;30.02;16.55;;;;;;;8.83;52.56;99700.80;1809392;79;21291;-89
2024/01/07 10:13:31;;;;;;;29.72;17.00;;;;;;;8.81;52.37;99713.78;1822483;77;22284;-88
2024/01/07 10:16:37;;;;;;;26.77;16.73;;;;;;;9.00;52.00;99692.01;1843006;78;21869;-89
2024/01/07 10:19:45;;;;;;;26.97;16.25;;;;;;;9.07;51.66;99687.50;1809728;79;21326;-88
2024/01/07 10:22:56;;;;;;;28.15;15.68;;;;;;;9.07;51.55;99689.39;1794413;78;21319;-90
2024/01/07 10:26:02;;;;;;;29.42;17.40;;;;;;;9.05;51.58;99676.45;1770916;81;22262;-89
2024/01/07 10:29:09;;;;;;;31.85;18.48;;;;;;;9.13;51.53;99659.52;1789244;79;21276;-89
2024/01/07 10:32:15;;;;;;;30.52;17.35;;;;;;;9.06;51.39;99676.27;1774472;79;22313;-88
2024/01/07 10:35:20;;;;;;;26.65;16.30;;;;;;;9.05;51.25;99679.19;1771884;79;21335;-88
2024/01/07 10:38:27;;;;;;;31.73;17.12;;;;;;;9.18;50.91;99684.89;1769040;81;21902;-88
2024/01/07 10:41:34;;;;;;;30.75;15.72;;;;;;;8.87;51.22;99673.50;1742263;82;22749;-89
2024/01/07 10:44:40;;;;;;;29.82;14.98;;;;;;;8.88;51.20;99690.72;1750872;82;22152;-89
2024/01/07 10:47:47;;;;;;;28.02;16.73;;;;;;;8.55;51.64;99686.81;1752696;81;21226;-89
2024/01/07 10:50:56;;;;;;;30.23;16.20;;;;;;;8.63;51.35;99694.95;1769848;81;21318;-88
2024/01/07 10:54:03;;;;;;;26.85;16.35;;;;;;;8.89;51.00;99676.04;1768604;81;21348;-88
2024/01/07 10:57:50;;;;;;;29.77;16.90;;;;;;;8.98;50.75;99675.48;1773476;79;21297;-91
2024/01/07 11:00:56;;;;;;;32.45;15.25;;;;;;;9.05;50.51;99680.03;1768478;79;21337;-88
2024/01/07 11:04:16;;;;;;;25.27;15.28;;;;;;;9.02;50.15;99673.56;1771959;81;21300;-89
2024/01/07 11:07:32;;;;;;;25.70;15.48;;;;;;;8.75;50.28;99648.19;1777785;79;21309;-88
2024/01/07 11:10:41;;;;;;;28.32;15.43;;;;;;;8.18;51.61;99669.75;1749142;81;21890;-89
2024/01/07 11:13:49;;;;;;;25.30;14.65;;;;;;;8.06;52.19;99662.48;1744651;81;21348;-89
2024/01/07 11:16:56;;;;;;;27.27;16.05;;;;;;;8.35;51.66;99668.66;1745319;81;21332;-89
2024/01/07 11:20:03;;;;;;;27.32;15.25;;;;;;;8.07;51.96;99664.18;1753170;81;21875;-89
2024/01/07 11:23:39;;;;;;;23.27;14.55;;;;;;;7.88;52.24;99630.55;1741158;82;21617;-89
2024/01/07 11:26:46;;;;;;;28.32;15.30;;;;;;;7.91;52.31;99624.25;1708740;83;21994;-88
2024/01/07 11:29:54;;;;;;;27.75;14.40;;;;;;;8.37;51.44;99640.73;1698068;82;21922;-89
2024/01/07 11:33:10;;;;;;;23.47;14.63;;;;;;;8.13;51.41;99657.17;1774143;79;21323;-87
2024/01/07 11:36:19;;;;;;;28.32;15.20;;;;;;;7.47;52.93;99646.98;1722554;81;21785;-88
2024/01/07 11:39:25;;;;;;;28.98;15.30;;;;;;;7.37;53.22;99656.69;1708579;83;21350;-88
2024/01/07 11:42:32;;;;;;;28.92;16.87;;;;;;;7.10;54.07;99631.20;1745157;81;21316;-88
2024/01/07 11:45:37;;;;;;;28.38;17.00;;;;;;;7.28;54.07;99637.82;1765944;81;21267;-88
2024/01/07 11:48:42;;;;;;;30.50;16.55;;;;;;;7.10;53.87;99650.23;1744831;81;21897;-87
2024/01/07 11:51:47;;;;;;;25.45;14.87;;;;;;;7.28;53.82;99660.43;1749401;81;21840;-87
2024/01/07 11:54:48;;;;;;;26.27;14.75;;;;;;;7.21;53.70;99660.79;1739635;81;21277;-88
2024/01/07 11:57:56;;;;;;;27.20;15.00;;;;;;;7.32;53.42;99672.67;1727556;82;22391;-89
2024/01/07 12:01:03;;;;;;;27.37;15.68;;;;;;;7.15;53.71;99645.13;1743081;82;21314;-88
2024/01/07 12:04:09;;;;;;;26.48;14.28;;;;;;;7.08;53.80;99665.88;1761476;81;21283;-88
2024/01/07 12:07:16;;;;;;;24.90;14.25;;;;;;;7.18;53.43;99661.12;1768803;81;21292;-88
2024/01/07 12:10:23;;;;;;;21.02;12.58;;;;;;;6.96;53.56;99678.09;1714140;82;21873;-87
2024/01/07 12:13:29;;;;;;;29.12;15.32;;;;;;;7.12;53.15;99646.85;1729966;82;21334;-87
2024/01/07 12:16:34;;;;;;;24.18;14.70;;;;;;;6.93;53.36;99661.62;1738073;82;21312;-89
2024/01/07 12:19:41;;;;;;;24.18;14.23;;;;;;;6.97;53.43;99669.80;1767701;81;21307;-88
2024/01/07 12:22:48;;;;;;;27.35;15.80;;;;;;;6.95;53.61;99658.73;1756103;81;21626;-87
2024/01/07 12:25:55;;;;;;;29.00;15.58;;;;;;;6.99;53.71;99650.06;1760809;81;21275;-88
2024/01/07 12:29:06;;;;;;;25.85;15.03;;;;;;;7.04;53.54;99661.80;1768334;81;22090;-89
2024/01/07 12:32:15;;;;;;;23.47;13.85;;;;;;;7.18;52.93;99657.89;1721417;82;21304;-88
2024/01/07 12:35:21;;;;;;;23.55;14.87;;;;;;;7.40;52.20;99666.39;1739389;82;21359;-87
2024/01/07 12:38:32;;;;;;;25.95;14.20;;;;;;;7.51;51.73;99651.05;1728806;81;21350;-88
2024/01/07 12:41:38;;;;;;;23.02;14.00;;;;;;;7.10;52.45;99663.83;1746564;82;21881;-88
2024/01/07 12:44:47;;;;;;;26.23;14.65;;;;;;;7.04;52.05;99663.16;1735172;82;21303;-87
2024/01/07 12:47:58;;;;;;;22.67;13.45;;;;;;;6.93;52.30;99657.55;1735622;82;21298;-88
2024/01/07 12:51:02;;;;;;;26.17;13.43;;;;;;;7.00;52.42;99674.88;1738710;82;22572;-88
2024/01/07 12:54:07;;;;;;;25.48;14.38;;;;;;;6.76;52.94;99655.82;1735939;80;21319;-87
2024/01/07 12:57:12;;;;;;;26.23;14.30;;;;;;;6.96;52.50;99687.10;1733850;82;22256;-88
2024/01/07 13:00:21;;;;;;;26.82;13.62;;;;;;;7.24;51.46;99677.27;1742862;82;21304;-87
2024/01/07 13:03:28;;;;;;;22.85;13.18;;;;;;;7.26;51.05;99664.36;1740348;80;22247;-89
2024/01/07 13:06:28;;;;;;;23.07;12.88;;;;;;;7.37;50.95;99663.48;1732245;80;21331;-88
2024/01/07 13:09:21;;;;;;;21.50;13.45;;;;;;;7.28;50.96;99654.98;1730087;82;21292;-88
2024/01/07 13:12:08;;;;;;;24.20;13.30;;;;;;;7.17;50.98;99646.67;1743303;82;21283;-87
2024/01/07 13:15:01;;;;;;;23.52;13.22;;;;;;;7.17;51.23;99639.03;1739863;82;21322;-89
2024/01/07 13:17:47;;;;;;;22.85;14.13;;;;;;;7.46;50.70;99638.99;1750071;82;21303;-87
2024/01/07 13:20:41;;;;;;;22.90;12.10;;;;;;;7.36;50.53;99643.27;1742613;82;21317;-89
2024/01/07 13:23:28;;;;;;;23.02;12.63;;;;;;;7.18;50.95;99648.88;1735647;80;21299;-88
2024/01/07 13:26:23;;;;;;;22.77;13.30;;;;;;;7.23;51.02;99656.02;1749557;82;21312;-88
2024/01/07 13:29:09;;;;;;;24.32;12.58;;;;;;;7.15;51.34;99651.92;1748301;82;21335;-90
2024/01/07 13:32:21;;;;;;;23.27;13.03;;;;;;;7.20;51.17;99650.05;1724714;82;21331;-88
2024/01/07 13:35:24;;;;;;;25.10;14.03;;;;;;;7.25;50.92;99661.30;1748942;82;21323;-89
2024/01/07 13:38:30;;;;;;;30.02;13.35;;;;;;;7.52;50.22;99654.62;1750179;82;21310;-89
2024/01/07 13:41:36;;;;;;;25.17;11.60;;;;;;;7.60;49.85;99660.06;1749916;82;21319;-88
2024/01/07 13:44:46;;;;;;;23.90;12.28;;;;;;;7.39;50.34;99686.46;1719124;83;21334;-89
2024/01/07 13:47:51;;;;;;;18.25;11.05;;;;;;;7.90;49.59;99657.08;1721835;81;22567;-88
2024/01/07 13:50:58;;;;;;;19.37;11.35;;;;;;;7.39;49.73;99672.86;1735649;82;21853;-88
2024/01/07 13:54:05;;;;;;;24.07;12.43;;;;;;;7.16;50.49;99689.01;1743699;82;21295;-89
2024/01/07 13:57:10;;;;;;;21.52;10.70;;;;;;;7.37;50.30;99702.94;1745058;82;21348;-88
2024/01/07 14:00:18;;;;;;;21.25;11.25;;;;;;;7.15;50.34;99696.32;1749316;81;21898;-89
2024/01/07 14:03:24;;;;;;;18.75;10.40;;;;;;;7.34;49.99;99686.09;1742727;82;21318;-89
2024/01/07 14:06:30;;;;;;;24.98;11.95;;;;;;;7.48;49.81;99698.16;1719210;83;21351;-89
2024/01/07 14:09:36;;;;;;;24.30;11.40;;;;;;;7.73;49.35;99700.37;1720270;83;22231;-89
2024/01/07 14:12:42;;;;;;;19.70;11.33;;;;;;;7.74;49.29;99700.19;1720213;82;21331;-88
2024/01/07 14:15:49;;;;;;;22.02;12.05;;;;;;;7.67;49.45;99690.51;1739417;82;21898;-88
2024/01/07 14:18:54;;;;;;;20.30;11.78;;;;;;;7.67;49.41;99689.66;1735247;82;21980;-89
2024/01/07 14:22:00;;;;;;;21.25;12.20;;;;;;;7.83;48.91;99674.64;1720408;82;21338;-89
2024/01/07 14:25:00;;;;;;;20.20;11.68;;;;;;;7.98;48.69;99678.00;1743580;82;21330;-90